sensor_id;sensor_type;location;lat;lon;timestamp;pressure;altitude;pressure_sealevel;temperature;humidity
6506;BME280;3286;49.858;8.768;2022-09-20T00:02:26;99682.94;;;13.54;56.10
6506;BME280;3286;49.858;8.768;2022-09-20T00:04:55;99682.78;;;13.56;56.25
6506;BME280;3286;49.858;8.768;2022-09-20T00:07:22;99681.66;;;13.40;56.45
6506;BME280;3286;49.858;8.768;2022-09-20T00:09:49;99677.63;;;13.89;55.43
6506;BME280;3286;49.858;8.768;2022-09-20T00:12:15;99677.25;;;13.49;55.99
6506;BME280;3286;49.858;8.768;2022-09-20T00:14:44;99681.66;;;13.40;56.72
6506;BME280;3286;49.858;8.768;2022-09-20T00:17:11;99689.25;;;13.09;57.84
6506;BME280;3286;49.858;8.768;2022-09-20T00:19:43;99674.22;;;13.17;57.72
6506;BME280;3286;49.858;8.768;2022-09-20T00:22:11;99684.56;;;13.29;57.62
6506;BME280;3286;49.858;8.768;2022-09-20T00:24:37;99689.59;;;13.58;56.67
6506;BME280;3286;49.858;8.768;2022-09-20T00:27:04;99691.75;;;13.55;56.75
6506;BME280;3286;49.858;8.768;2022-09-20T00:29:32;99692.25;;;13.14;58.46
6506;BME280;3286;49.858;8.768;2022-09-20T00:31:59;99693.78;;;13.16;57.99
6506;BME280;3286;49.858;8.768;2022-09-20T00:34:30;99696.72;;;13.58;56.51
6506;BME280;3286;49.858;8.768;2022-09-20T00:37:16;99696.06;;;13.56;56.80
6506;BME280;3286;49.858;8.768;2022-09-20T00:39:45;99694.16;;;12.77;59.46
6506;BME280;3286;49.858;8.768;2022-09-20T00:42:13;99697.59;;;12.96;59.17
6506;BME280;3286;49.858;8.768;2022-09-20T00:44:58;99687.69;;;13.24;58.14
6506;BME280;3286;49.858;8.768;2022-09-20T00:47:35;99691.09;;;13.08;58.30
6506;BME280;3286;49.858;8.768;2022-09-20T00:50:13;99691.72;;;12.66;59.07
6506;BME280;3286;49.858;8.768;2022-09-20T00:52:47;99683.53;;;13.22;58.02
6506;BME280;3286;49.858;8.768;2022-09-20T00:55:19;99678.19;;;13.13;58.40
6506;BME280;3286;49.858;8.768;2022-09-20T00:57:46;99691.09;;;13.61;56.85
6506;BME280;3286;49.858;8.768;2022-09-20T01:00:13;99687.50;;;13.17;58.00
6506;BME280;3286;49.858;8.768;2022-09-20T01:02:47;99691.94;;;13.17;57.75
6506;BME280;3286;49.858;8.768;2022-09-20T01:05:14;99701.06;;;13.41;57.44
6506;BME280;3286;49.858;8.768;2022-09-20T01:07:47;99697.56;;;13.14;58.31
6506;BME280;3286;49.858;8.768;2022-09-20T01:10:15;99689.25;;;13.35;57.24
6506;BME280;3286;49.858;8.768;2022-09-20T01:12:42;99691.53;;;13.30;57.24
6506;BME280;3286;49.858;8.768;2022-09-20T01:15:11;99696.75;;;13.13;58.14
6506;BME280;3286;49.858;8.768;2022-09-20T01:17:39;99697.69;;;13.49;57.06
6506;BME280;3286;49.858;8.768;2022-09-20T01:20:11;99698.88;;;13.10;58.64
6506;BME280;3286;49.858;8.768;2022-09-20T01:26:24;99701.03;;;13.32;57.69
6506;BME280;3286;49.858;8.768;2022-09-20T01:29:00;99703.91;;;13.21;57.92
6506;BME280;3286;49.858;8.768;2022-09-20T01:31:32;99706.03;;;13.36;57.24
6506;BME280;3286;49.858;8.768;2022-09-20T01:34:05;99699.09;;;13.16;57.97
6506;BME280;3286;49.858;8.768;2022-09-20T01:36:38;99701.78;;;12.98;58.01
6506;BME280;3286;49.858;8.768;2022-09-20T01:39:15;99681.50;;;13.15;57.53
6506;BME280;3286;49.858;8.768;2022-09-20T01:41:52;99697.75;;;13.12;57.74
6506;BME280;3286;49.858;8.768;2022-09-20T01:44:29;99690.97;;;13.18;57.65
6506;BME280;3286;49.858;8.768;2022-09-20T01:47:02;99692.56;;;13.11;57.76
6506;BME280;3286;49.858;8.768;2022-09-20T01:49:39;99702.41;;;12.92;58.22
6506;BME280;3286;49.858;8.768;2022-09-20T01:55:47;99710.97;;;12.86;59.15
6506;BME280;3286;49.858;8.768;2022-09-20T01:58:40;99696.72;;;12.69;59.31
6506;BME280;3286;49.858;8.768;2022-09-20T02:01:31;99703.69;;;12.52;59.58
6506;BME280;3286;49.858;8.768;2022-09-20T02:04:12;99703.00;;;12.68;58.82
6506;BME280;3286;49.858;8.768;2022-09-20T02:07:00;99696.72;;;12.69;59.22
6506;BME280;3286;49.858;8.768;2022-09-20T02:10:02;99693.66;;;13.00;57.67
6506;BME280;3286;49.858;8.768;2022-09-20T02:12:45;99694.25;;;12.94;58.11
6506;BME280;3286;49.858;8.768;2022-09-20T02:15:31;99688.97;;;12.75;58.52
6506;BME280;3286;49.858;8.768;2022-09-20T02:18:10;99684.69;;;13.01;57.50
6506;BME280;3286;49.858;8.768;2022-09-20T02:20:44;99697.63;;;12.78;58.53
6506;BME280;3286;49.858;8.768;2022-09-20T02:23:22;99693.69;;;12.45;59.56
6506;BME280;3286;49.858;8.768;2022-09-20T02:26:06;99693.00;;;12.61;58.66
6506;BME280;3286;49.858;8.768;2022-09-20T02:28:50;99690.25;;;12.35;59.55
6506;BME280;3286;49.858;8.768;2022-09-20T02:31:26;99697.22;;;12.90;57.74
6506;BME280;3286;49.858;8.768;2022-09-20T02:37:04;99691.31;;;12.42;58.96
6506;BME280;3286;49.858;8.768;2022-09-20T02:39:36;99685.28;;;12.68;58.61
6506;BME280;3286;49.858;8.768;2022-09-20T02:42:10;99697.59;;;12.41;58.98
6506;BME280;3286;49.858;8.768;2022-09-20T02:44:48;99698.00;;;12.28;59.53
6506;BME280;3286;49.858;8.768;2022-09-20T02:47:26;99704.00;;;12.49;58.41
6506;BME280;3286;49.858;8.768;2022-09-20T02:50:12;99705.44;;;12.61;58.06
6506;BME280;3286;49.858;8.768;2022-09-20T02:52:51;99697.84;;;12.48;58.53
6506;BME280;3286;49.858;8.768;2022-09-20T02:55:33;99699.06;;;12.54;58.41
6506;BME280;3286;49.858;8.768;2022-09-20T02:58:15;99695.81;;;12.60;58.15
6506;BME280;3286;49.858;8.768;2022-09-20T03:00:52;99697.53;;;12.69;57.83
6506;BME280;3286;49.858;8.768;2022-09-20T03:03:25;99703.66;;;12.34;58.59
6506;BME280;3286;49.858;8.768;2022-09-20T03:06:02;99700.81;;;12.17;59.30
6506;BME280;3286;49.858;8.768;2022-09-20T03:08:34;99702.28;;;12.11;59.45
6506;BME280;3286;49.858;8.768;2022-09-20T03:11:12;99704.56;;;12.42;58.36
6506;BME280;3286;49.858;8.768;2022-09-20T03:14:00;99704.56;;;12.42;58.42
6506;BME280;3286;49.858;8.768;2022-09-20T03:16:35;99709.72;;;12.44;58.18
6506;BME280;3286;49.858;8.768;2022-09-20T03:19:14;99712.38;;;12.44;57.93
6506;BME280;3286;49.858;8.768;2022-09-20T03:21:55;99718.38;;;12.46;57.67
6506;BME280;3286;49.858;8.768;2022-09-20T03:24:35;99722.28;;;12.42;57.99
6506;BME280;3286;49.858;8.768;2022-09-20T03:27:15;99724.41;;;12.38;58.30
6506;BME280;3286;49.858;8.768;2022-09-20T03:29:55;99718.41;;;12.36;58.16
6506;BME280;3286;49.858;8.768;2022-09-20T03:32:39;99725.19;;;12.49;58.21
6506;BME280;3286;49.858;8.768;2022-09-20T03:35:26;99726.06;;;12.39;58.60
6506;BME280;3286;49.858;8.768;2022-09-20T03:38:09;99724.19;;;12.03;59.32
6506;BME280;3286;49.858;8.768;2022-09-20T03:41:01;99723.50;;;12.29;58.76
6506;BME280;3286;49.858;8.768;2022-09-20T03:43:47;99720.25;;;12.36;58.21
6506;BME280;3286;49.858;8.768;2022-09-20T03:46:21;99716.44;;;12.38;57.88
6506;BME280;3286;49.858;8.768;2022-09-20T03:49:07;99715.38;;;12.31;57.65
6506;BME280;3286;49.858;8.768;2022-09-20T03:51:45;99712.66;;;12.23;57.87
6506;BME280;3286;49.858;8.768;2022-09-20T03:54:42;99717.72;;;12.34;58.03
6506;BME280;3286;49.858;8.768;2022-09-20T03:57:38;99721.50;;;12.13;58.30
6506;BME280;3286;49.858;8.768;2022-09-20T04:00:21;99722.13;;;12.25;58.07
6506;BME280;3286;49.858;8.768;2022-09-20T04:03:01;99724.66;;;12.63;57.22
6506;BME280;3286;49.858;8.768;2022-09-20T04:05:48;99724.06;;;11.95;58.94
6506;BME280;3286;49.858;8.768;2022-09-20T04:08:27;99728.06;;;12.09;58.36
6506;BME280;3286;49.858;8.768;2022-09-20T04:11:06;99730.06;;;12.25;57.94
6506;BME280;3286;49.858;8.768;2022-09-20T04:13:38;99729.72;;;12.10;57.99
6506;BME280;3286;49.858;8.768;2022-09-20T04:16:22;99728.84;;;12.20;58.33
6506;BME280;3286;49.858;8.768;2022-09-20T04:18:55;99730.47;;;11.93;58.42
6506;BME280;3286;49.858;8.768;2022-09-20T04:21:31;99728.66;;;11.55;60.08
6506;BME280;3286;49.858;8.768;2022-09-20T04:24:08;99731.44;;;11.54;59.87
6506;BME280;3286;49.858;8.768;2022-09-20T04:26:48;99731.25;;;11.75;59.27
6506;BME280;3286;49.858;8.768;2022-09-20T04:29:27;99727.69;;;12.04;58.50
6506;BME280;3286;49.858;8.768;2022-09-20T04:32:02;99728.78;;;12.01;58.36
6506;BME280;3286;49.858;8.768;2022-09-20T04:34:37;99735.19;;;11.61;59.65
6506;BME280;3286;49.858;8.768;2022-09-20T04:37:27;99734.34;;;11.60;59.09
6506;BME280;3286;49.858;8.768;2022-09-20T04:40:04;99738.03;;;11.20;60.37
6506;BME280;3286;49.858;8.768;2022-09-20T04:54:54;99743.09;;;11.71;59.31
6506;BME280;3286;49.858;8.768;2022-09-20T04:57:41;99750.88;;;10.85;62.28
6506;BME280;3286;49.858;8.768;2022-09-20T05:00:21;99755.50;;;11.60;59.69
6506;BME280;3286;49.858;8.768;2022-09-20T05:06:27;99761.97;;;11.38;60.33
6506;BME280;3286;49.858;8.768;2022-09-20T05:09:18;99767.06;;;11.59;60.17
6506;BME280;3286;49.858;8.768;2022-09-20T05:11:54;99757.72;;;11.75;59.63
6506;BME280;3286;49.858;8.768;2022-09-20T05:17:45;99765.50;;;11.77;59.74
6506;BME280;3286;49.858;8.768;2022-09-20T05:20:31;99774.03;;;11.60;59.92
6506;BME280;3286;49.858;8.768;2022-09-20T05:23:22;99766.81;;;11.53;59.67
6506;BME280;3286;49.858;8.768;2022-09-20T05:26:10;99773.19;;;11.70;59.85
6506;BME280;3286;49.858;8.768;2022-09-20T05:28:48;99770.44;;;11.52;60.19
6506;BME280;3286;49.858;8.768;2022-09-20T05:31:25;99776.47;;;11.82;59.28
6506;BME280;3286;49.858;8.768;2022-09-20T05:33:58;99771.25;;;11.52;59.49
6506;BME280;3286;49.858;8.768;2022-09-20T05:36:43;99765.00;;;12.01;58.48
6506;BME280;3286;49.858;8.768;2022-09-20T05:39:26;99763.66;;;12.25;57.46
6506;BME280;3286;49.858;8.768;2022-09-20T05:41:59;99771.75;;;11.85;58.53
6506;BME280;3286;49.858;8.768;2022-09-20T05:44:46;99779.69;;;11.85;58.56
6506;BME280;3286;49.858;8.768;2022-09-20T05:47:26;99787.88;;;11.92;58.65
6506;BME280;3286;49.858;8.768;2022-09-20T05:50:02;99787.31;;;11.98;58.35
6506;BME280;3286;49.858;8.768;2022-09-20T05:52:43;99779.69;;;11.85;58.61
6506;BME280;3286;49.858;8.768;2022-09-20T05:55:29;99786.06;;;11.93;58.48
6506;BME280;3286;49.858;8.768;2022-09-20T05:58:33;99788.50;;;12.24;57.91
6506;BME280;3286;49.858;8.768;2022-09-20T06:01:08;99790.16;;;11.77;58.99
6506;BME280;3286;49.858;8.768;2022-09-20T06:03:41;99790.94;;;11.97;58.45
6506;BME280;3286;49.858;8.768;2022-09-20T06:06:13;99797.28;;;12.24;58.23
6506;BME280;3286;49.858;8.768;2022-09-20T06:09:09;99799.84;;;12.34;58.30
6506;BME280;3286;49.858;8.768;2022-09-20T06:12:02;99800.59;;;12.54;57.99
6506;BME280;3286;49.858;8.768;2022-09-20T06:14:40;99807.59;;;12.27;57.93
6506;BME280;3286;49.858;8.768;2022-09-20T06:17:19;99797.94;;;12.54;57.31
6506;BME280;3286;49.858;8.768;2022-09-20T06:19:51;99802.41;;;12.26;58.14
6506;BME280;3286;49.858;8.768;2022-09-20T06:22:28;99799.53;;;12.47;57.44
6506;BME280;3286;49.858;8.768;2022-09-20T06:25:02;99803.13;;;11.60;60.28
6506;BME280;3286;49.858;8.768;2022-09-20T06:27:41;99810.03;;;12.39;58.05
6506;BME280;3286;49.858;8.768;2022-09-20T06:30:16;99806.16;;;11.85;59.54
6506;BME280;3286;49.858;8.768;2022-09-20T06:32:57;99809.41;;;11.69;60.21
6506;BME280;3286;49.858;8.768;2022-09-20T06:35:30;99807.25;;;12.02;58.92
6506;BME280;3286;49.858;8.768;2022-09-20T06:38:12;99808.88;;;11.46;61.85
6506;BME280;3286;49.858;8.768;2022-09-20T06:41:02;99819.75;;;11.13;62.73
6506;BME280;3286;49.858;8.768;2022-09-20T06:43:46;99810.13;;;11.52;61.86
6506;BME280;3286;49.858;8.768;2022-09-20T06:46:14;99817.94;;;11.14;62.95
6506;BME280;3286;49.858;8.768;2022-09-20T06:48:44;99816.53;;;11.59;61.75
6506;BME280;3286;49.858;8.768;2022-09-20T06:51:11;99813.97;;;12.35;59.64
6506;BME280;3286;49.858;8.768;2022-09-20T06:53:41;99813.78;;;12.08;60.41
6506;BME280;3286;49.858;8.768;2022-09-20T06:56:16;99810.94;;;12.94;58.54
6506;BME280;3286;49.858;8.768;2022-09-20T06:58:43;99812.53;;;13.23;57.79
6506;BME280;3286;49.858;8.768;2022-09-20T07:01:10;99807.63;;;13.46;56.63
6506;BME280;3286;49.858;8.768;2022-09-20T07:03:38;99815.66;;;13.18;57.96
6506;BME280;3286;49.858;8.768;2022-09-20T07:06:05;99815.97;;;13.77;57.06
6506;BME280;3286;49.858;8.768;2022-09-20T07:08:31;99819.56;;;13.68;56.97
6506;BME280;3286;49.858;8.768;2022-09-20T07:11:04;99822.38;;;13.67;57.00
6506;BME280;3286;49.858;8.768;2022-09-20T07:13:38;99828.56;;;13.75;55.82
6506;BME280;3286;49.858;8.768;2022-09-20T07:16:06;99826.19;;;13.90;56.85
6506;BME280;3286;49.858;8.768;2022-09-20T07:18:38;99832.03;;;13.94;56.30
6506;BME280;3286;49.858;8.768;2022-09-20T07:21:08;99835.84;;;14.00;55.97
6506;BME280;3286;49.858;8.768;2022-09-20T07:23:36;99830.84;;;13.97;56.23
6506;BME280;3286;49.858;8.768;2022-09-20T07:26:11;99828.56;;;14.02;55.76
6506;BME280;3286;49.858;8.768;2022-09-20T07:28:43;99830.75;;;14.41;55.53
6506;BME280;3286;49.858;8.768;2022-09-20T07:31:09;99831.59;;;14.42;55.27
6506;BME280;3286;49.858;8.768;2022-09-20T07:33:36;99834.38;;;13.97;56.34
6506;BME280;3286;49.858;8.768;2022-09-20T07:36:03;99842.31;;;14.24;55.87
6506;BME280;3286;49.858;8.768;2022-09-20T07:38:29;99845.94;;;14.57;54.49
6506;BME280;3286;49.858;8.768;2022-09-20T07:40:57;99846.81;;;14.66;55.00
6506;BME280;3286;49.858;8.768;2022-09-20T07:43:25;99845.47;;;14.62;54.62
6506;BME280;3286;49.858;8.768;2022-09-20T07:45:54;99851.59;;;14.62;54.90
6506;BME280;3286;49.858;8.768;2022-09-20T07:48:23;99850.97;;;14.69;53.93
6506;BME280;3286;49.858;8.768;2022-09-20T07:50:51;99849.56;;;14.13;55.46
6506;BME280;3286;49.858;8.768;2022-09-20T07:53:19;99847.88;;;13.86;55.99
6506;BME280;3286;49.858;8.768;2022-09-20T07:55:55;99867.03;;;14.51;55.69
6506;BME280;3286;49.858;8.768;2022-09-20T07:58:24;99864.56;;;15.09;54.28
6506;BME280;3286;49.858;8.768;2022-09-20T08:00:56;99863.09;;;14.02;55.84
6506;BME280;3286;49.858;8.768;2022-09-20T08:03:24;99862.22;;;14.62;54.55
6506;BME280;3286;49.858;8.768;2022-09-20T08:05:58;99860.88;;;14.58;54.60
6506;BME280;3286;49.858;8.768;2022-09-20T08:08:24;99857.28;;;14.33;55.50
6506;BME280;3286;49.858;8.768;2022-09-20T08:11:00;99872.94;;;13.83;56.38
6506;BME280;3286;49.858;8.768;2022-09-20T08:13:29;99863.34;;;14.86;54.59
6506;BME280;3286;49.858;8.768;2022-09-20T08:16:04;99863.53;;;14.58;54.11
6506;BME280;3286;49.858;8.768;2022-09-20T08:18:33;99864.47;;;14.41;54.48
6506;BME280;3286;49.858;8.768;2022-09-20T08:21:07;99867.66;;;14.79;53.92
6506;BME280;3286;49.858;8.768;2022-09-20T08:23:34;99861.50;;;14.87;53.58
6506;BME280;3286;49.858;8.768;2022-09-20T08:26:01;99861.38;;;14.54;54.98
6506;BME280;3286;49.858;8.768;2022-09-20T08:28:28;99859.66;;;14.71;53.31
6506;BME280;3286;49.858;8.768;2022-09-20T08:31:01;99864.84;;;14.46;54.28
6506;BME280;3286;49.858;8.768;2022-09-20T08:33:28;99866.47;;;14.82;53.76
6506;BME280;3286;49.858;8.768;2022-09-20T08:35:55;99865.91;;;15.13;53.18
6506;BME280;3286;49.858;8.768;2022-09-20T08:38:23;99870.06;;;14.64;55.34
6506;BME280;3286;49.858;8.768;2022-09-20T08:40:56;99866.56;;;15.15;52.88
6506;BME280;3286;49.858;8.768;2022-09-20T08:43:28;99870.06;;;15.15;53.09
6506;BME280;3286;49.858;8.768;2022-09-20T08:45:58;99870.53;;;15.02;53.09
6506;BME280;3286;49.858;8.768;2022-09-20T08:48:32;99869.91;;;15.25;53.19
6506;BME280;3286;49.858;8.768;2022-09-20T08:51:00;99872.59;;;15.75;51.87
6506;BME280;3286;49.858;8.768;2022-09-20T08:53:28;99861.13;;;15.58;51.76
6506;BME280;3286;49.858;8.768;2022-09-20T08:55:57;99873.19;;;14.94;51.72
6506;BME280;3286;49.858;8.768;2022-09-20T08:58:25;99874.59;;;15.40;51.36
6506;BME280;3286;49.858;8.768;2022-09-20T09:00:54;99876.41;;;15.14;51.44
6506;BME280;3286;49.858;8.768;2022-09-20T09:03:23;99869.25;;;15.64;50.16
6506;BME280;3286;49.858;8.768;2022-09-20T09:05:53;99867.94;;;15.35;52.14
6506;BME280;3286;49.858;8.768;2022-09-20T09:08:23;99871.22;;;15.13;52.24
6506;BME280;3286;49.858;8.768;2022-09-20T09:10:53;99873.09;;;15.29;50.79
6506;BME280;3286;49.858;8.768;2022-09-20T09:13:25;99874.84;;;14.95;51.84
6506;BME280;3286;49.858;8.768;2022-09-20T09:15:56;99872.09;;;15.55;50.17
6506;BME280;3286;49.858;8.768;2022-09-20T09:18:36;99869.44;;;15.63;50.68
6506;BME280;3286;49.858;8.768;2022-09-20T09:21:07;99869.78;;;15.68;49.97
6506;BME280;3286;49.858;8.768;2022-09-20T09:23:39;99870.75;;;15.84;49.79
6506;BME280;3286;49.858;8.768;2022-09-20T09:26:15;99856.25;;;16.03;49.86
6506;BME280;3286;49.858;8.768;2022-09-20T09:28:42;99857.41;;;16.17;47.55
6506;BME280;3286;49.858;8.768;2022-09-20T09:31:19;99858.78;;;15.96;49.00
6506;BME280;3286;49.858;8.768;2022-09-20T09:33:47;99856.00;;;16.38;47.27
6506;BME280;3286;49.858;8.768;2022-09-20T09:36:20;99855.91;;;16.06;48.47
6506;BME280;3286;49.858;8.768;2022-09-20T09:38:50;99856.22;;;16.19;45.97
6506;BME280;3286;49.858;8.768;2022-09-20T09:41:22;99845.28;;;15.98;45.02
6506;BME280;3286;49.858;8.768;2022-09-20T09:43:58;99851.09;;;16.10;45.99
6506;BME280;3286;49.858;8.768;2022-09-20T09:46:29;99848.59;;;16.00;45.22
6506;BME280;3286;49.858;8.768;2022-09-20T09:49:10;99851.13;;;15.93;45.97
6506;BME280;3286;49.858;8.768;2022-09-20T09:52:00;99847.44;;;16.02;44.37
6506;BME280;3286;49.858;8.768;2022-09-20T09:54:30;99845.31;;;16.77;43.15
6506;BME280;3286;49.858;8.768;2022-09-20T09:57:12;99846.59;;;17.21;41.41
6506;BME280;3286;49.858;8.768;2022-09-20T10:00:00;99830.72;;;16.65;42.64
6506;BME280;3286;49.858;8.768;2022-09-20T10:05:42;99842.75;;;16.61;43.11
6506;BME280;3286;49.858;8.768;2022-09-20T10:08:29;99847.72;;;16.95;42.43
6506;BME280;3286;49.858;8.768;2022-09-20T10:11:09;99835.56;;;17.25;41.91
6506;BME280;3286;49.858;8.768;2022-09-20T10:13:48;99836.25;;;17.80;39.92
6506;BME280;3286;49.858;8.768;2022-09-20T10:16:27;99827.47;;;18.09;39.07
6506;BME280;3286;49.858;8.768;2022-09-20T10:19:05;99826.22;;;18.57;38.63
6506;BME280;3286;49.858;8.768;2022-09-20T10:21:46;99825.19;;;18.58;37.39
6506;BME280;3286;49.858;8.768;2022-09-20T10:24:25;99827.44;;;17.56;40.25
6506;BME280;3286;49.858;8.768;2022-09-20T10:27:13;99836.25;;;16.55;42.49
6506;BME280;3286;49.858;8.768;2022-09-20T10:29:57;99833.78;;;16.85;42.30
6506;BME280;3286;49.858;8.768;2022-09-20T10:32:40;99826.59;;;17.41;41.44
6506;BME280;3286;49.858;8.768;2022-09-20T10:35:19;99822.22;;;17.01;41.46
6506;BME280;3286;49.858;8.768;2022-09-20T10:38:05;99822.63;;;17.75;39.15
6506;BME280;3286;49.858;8.768;2022-09-20T10:40:44;99816.19;;;18.81;37.90
6506;BME280;3286;49.858;8.768;2022-09-20T10:43:41;99801.28;;;18.93;37.39
6506;BME280;3286;49.858;8.768;2022-09-20T10:46:20;99817.00;;;18.81;38.38
6506;BME280;3286;49.858;8.768;2022-09-20T10:48:59;99810.00;;;18.80;36.81
6506;BME280;3286;49.858;8.768;2022-09-20T10:51:36;99807.50;;;18.42;38.54
6506;BME280;3286;49.858;8.768;2022-09-20T10:54:15;99806.69;;;17.96;37.54
6506;BME280;3286;49.858;8.768;2022-09-20T10:56:54;99805.22;;;18.09;38.56
6506;BME280;3286;49.858;8.768;2022-09-20T10:59:36;99799.44;;;18.20;36.92
6506;BME280;3286;49.858;8.768;2022-09-20T11:05:17;99799.91;;;18.98;36.41
6506;BME280;3286;49.858;8.768;2022-09-20T11:07:55;99802.47;;;18.17;38.71
6506;BME280;3286;49.858;8.768;2022-09-20T11:10:26;99802.63;;;18.82;37.80
6506;BME280;3286;49.858;8.768;2022-09-20T11:12:57;99811.16;;;18.19;39.18
6506;BME280;3286;49.858;8.768;2022-09-20T11:15:29;99807.41;;;18.35;37.72
6506;BME280;3286;49.858;8.768;2022-09-20T11:18:03;99806.44;;;18.73;37.77
6506;BME280;3286;49.858;8.768;2022-09-20T11:20:40;99804.78;;;18.94;37.40
6506;BME280;3286;49.858;8.768;2022-09-20T11:23:13;99803.94;;;19.08;35.76
6506;BME280;3286;49.858;8.768;2022-09-20T11:25:46;99811.91;;;19.23;35.02
6506;BME280;3286;49.858;8.768;2022-09-20T11:28:20;99815.94;;;19.13;35.94
6506;BME280;3286;49.858;8.768;2022-09-20T11:30:55;99823.84;;;18.84;35.95
6506;BME280;3286;49.858;8.768;2022-09-20T11:33:27;99820.41;;;18.53;36.80
6506;BME280;3286;49.858;8.768;2022-09-20T11:35:57;99820.97;;;18.49;38.07
6506;BME280;3286;49.858;8.768;2022-09-20T11:38:30;99819.59;;;18.23;37.50
6506;BME280;3286;49.858;8.768;2022-09-20T11:41:04;99825.09;;;17.91;37.96
6506;BME280;3286;49.858;8.768;2022-09-20T11:43:37;99826.31;;;17.50;40.32
6506;BME280;3286;49.858;8.768;2022-09-20T11:46:17;99831.00;;;17.87;39.25
6506;BME280;3286;49.858;8.768;2022-09-20T11:48:47;99829.50;;;17.69;40.90
6506;BME280;3286;49.858;8.768;2022-09-20T11:54:20;99835.34;;;17.03;42.38
6506;BME280;3286;49.858;8.768;2022-09-20T11:56:55;99842.19;;;16.74;44.32
6506;BME280;3286;49.858;8.768;2022-09-20T11:59:29;99838.22;;;16.61;45.88
6506;BME280;3286;49.858;8.768;2022-09-20T12:02:04;99838.56;;;16.10;48.17
6506;BME280;3286;49.858;8.768;2022-09-20T12:04:42;99847.13;;;15.97;49.98
6506;BME280;3286;49.858;8.768;2022-09-20T12:07:18;99848.25;;;16.03;50.69
6506;BME280;3286;49.858;8.768;2022-09-20T12:09:52;99841.78;;;15.81;52.37
6506;BME280;3286;49.858;8.768;2022-09-20T12:12:30;99836.91;;;16.09;53.49
6506;BME280;3286;49.858;8.768;2022-09-20T12:15:00;99836.44;;;15.81;52.29
6506;BME280;3286;49.858;8.768;2022-09-20T12:20:56;99843.63;;;15.55;55.37
6506;BME280;3286;49.858;8.768;2022-09-20T12:26:43;99837.84;;;15.52;55.51
6506;BME280;3286;49.858;8.768;2022-09-20T12:32:41;99828.03;;;16.97;50.55
6506;BME280;3286;49.858;8.768;2022-09-20T12:38:36;99811.00;;;17.83;45.30
6506;BME280;3286;49.858;8.768;2022-09-20T12:41:07;99808.31;;;17.83;44.54
6506;BME280;3286;49.858;8.768;2022-09-20T12:43:36;99808.16;;;17.84;42.33
6506;BME280;3286;49.858;8.768;2022-09-20T12:46:05;99803.69;;;17.61;44.17
6506;BME280;3286;49.858;8.768;2022-09-20T12:48:36;99808.16;;;17.84;45.36
6506;BME280;3286;49.858;8.768;2022-09-20T12:51:05;99804.34;;;17.78;43.47
6506;BME280;3286;49.858;8.768;2022-09-20T12:54:01;99805.25;;;17.71;42.41
6506;BME280;3286;49.858;8.768;2022-09-20T12:56:33;99811.25;;;17.19;41.87
6506;BME280;3286;49.858;8.768;2022-09-20T12:59:01;99810.25;;;17.59;41.63
6506;BME280;3286;49.858;8.768;2022-09-20T13:01:34;99810.03;;;17.22;41.22
6506;BME280;3286;49.858;8.768;2022-09-20T13:04:48;99807.44;;;18.20;41.24
6506;BME280;3286;49.858;8.768;2022-09-20T13:07:43;99803.19;;;19.72;40.42
6506;BME280;3286;49.858;8.768;2022-09-20T13:10:22;99798.00;;;19.63;41.69
6506;BME280;3286;49.858;8.768;2022-09-20T13:12:52;99795.88;;;18.50;37.92
6506;BME280;3286;49.858;8.768;2022-09-20T13:15:21;99800.53;;;18.11;41.15
6506;BME280;3286;49.858;8.768;2022-09-20T13:17:50;99792.59;;;17.34;42.95
6506;BME280;3286;49.858;8.768;2022-09-20T13:20:22;99799.13;;;17.85;43.06
6506;BME280;3286;49.858;8.768;2022-09-20T13:22:51;99793.50;;;17.95;43.07
6506;BME280;3286;49.858;8.768;2022-09-20T13:25:26;99796.03;;;17.58;40.65
6506;BME280;3286;49.858;8.768;2022-09-20T13:28:04;99797.06;;;17.57;43.34
6506;BME280;3286;49.858;8.768;2022-09-20T13:30:32;99803.66;;;17.46;44.58
6506;BME280;3286;49.858;8.768;2022-09-20T13:33:14;99808.63;;;16.00;44.71
6506;BME280;3286;49.858;8.768;2022-09-20T13:35:45;99806.22;;;16.61;44.31
6506;BME280;3286;49.858;8.768;2022-09-20T13:38:13;99815.84;;;17.26;42.69
6506;BME280;3286;49.858;8.768;2022-09-20T13:40:45;99830.50;;;16.75;45.60
6506;BME280;3286;49.858;8.768;2022-09-20T13:43:18;99841.75;;;14.89;50.98
6506;BME280;3286;49.858;8.768;2022-09-20T13:45:51;99839.63;;;15.68;49.89
6506;BME280;3286;49.858;8.768;2022-09-20T13:48:23;99835.25;;;16.16;50.58
6506;BME280;3286;49.858;8.768;2022-09-20T13:50:54;99844.28;;;15.82;50.95
6506;BME280;3286;49.858;8.768;2022-09-20T13:53:23;99849.94;;;15.13;52.98
6506;BME280;3286;49.858;8.768;2022-09-20T13:55:50;99844.94;;;15.01;53.02
6506;BME280;3286;49.858;8.768;2022-09-20T13:58:20;99844.94;;;14.93;54.35
6506;BME280;3286;49.858;8.768;2022-09-20T14:00:52;99840.63;;;15.25;53.24
6506;BME280;3286;49.858;8.768;2022-09-20T14:03:21;99835.28;;;15.09;54.75
6506;BME280;3286;49.858;8.768;2022-09-20T14:05:51;99837.75;;;14.94;55.07
6506;BME280;3286;49.858;8.768;2022-09-20T14:08:22;99845.66;;;14.69;54.95
6506;BME280;3286;49.858;8.768;2022-09-20T14:11:02;99827.63;;;14.97;55.56
6506;BME280;3286;49.858;8.768;2022-09-20T14:13:36;99838.66;;;15.35;54.15
6506;BME280;3286;49.858;8.768;2022-09-20T14:16:05;99833.81;;;15.14;55.22
6506;BME280;3286;49.858;8.768;2022-09-20T14:18:32;99830.66;;;15.60;53.63
6506;BME280;3286;49.858;8.768;2022-09-20T14:21:01;99824.97;;;15.80;53.71
6506;BME280;3286;49.858;8.768;2022-09-20T14:23:51;99817.09;;;16.12;53.23
6506;BME280;3286;49.858;8.768;2022-09-20T14:26:23;99814.94;;;16.15;53.51
6506;BME280;3286;49.858;8.768;2022-09-20T14:28:50;99812.22;;;16.95;51.04
6506;BME280;3286;49.858;8.768;2022-09-20T14:31:19;99811.09;;;17.13;50.69
6506;BME280;3286;49.858;8.768;2022-09-20T14:33:49;99809.50;;;17.27;50.17
6506;BME280;3286;49.858;8.768;2022-09-20T14:36:20;99803.69;;;17.61;50.14
6506;BME280;3286;49.858;8.768;2022-09-20T14:38:52;99806.28;;;17.85;50.13
6506;BME280;3286;49.858;8.768;2022-09-20T14:41:25;99802.19;;;17.44;50.05
6506;BME280;3286;49.858;8.768;2022-09-20T14:43:55;99807.56;;;17.20;49.98
6506;BME280;3286;49.858;8.768;2022-09-20T14:46:28;99806.97;;;17.48;47.93
6506;BME280;3286;49.858;8.768;2022-09-20T14:49:18;99804.09;;;17.12;49.06
6506;BME280;3286;49.858;8.768;2022-09-20T14:51:48;99804.00;;;16.97;48.46
6506;BME280;3286;49.858;8.768;2022-09-20T14:54:26;99798.53;;;16.66;50.02
6506;BME280;3286;49.858;8.768;2022-09-20T14:56:56;99798.72;;;16.25;49.00
6506;BME280;3286;49.858;8.768;2022-09-20T14:59:25;99799.59;;;16.09;49.69